Time;durP1;ratioP1;P1;durP2;ratioP2;P2;SDS_P1;SDS_P2;PMS_P1;PMS_P2;Temp;Humidity;BMP_temperature;BMP_pressure;BME280_temperature;BME280_humidity;BME280_pressure;Samples;Min_cycle;Max_cycle;Signal;HPM_P1;HPM_P2
2022/04/08 00:00:38;;;;;;;4.85;2.15;;;;;;;6.81;76.65;99048.19;4959544;28;21004;-69
2022/04/08 00:03:03;;;;;;;5.78;2.40;;;;;;;6.82;75.29;99049.81;4959850;28;20948;-71
2022/04/08 00:05:29;;;;;;;5.35;2.08;;;;;;;6.85;75.74;99053.97;4961094;28;20006;-70
2022/04/08 00:07:54;;;;;;;8.18;2.85;;;;;;;6.81;75.68;99052.63;4950397;28;20014;-70
2022/04/08 00:10:19;;;;;;;5.10;2.15;;;;;;;6.83;76.30;99056.75;4946058;28;20034;-70
2022/04/08 00:12:45;;;;;;;8.57;2.38;;;;;;;6.85;75.81;99069.72;4942838;28;20168;-69
2022/04/08 00:15:10;;;;;;;4.72;2.70;;;;;;;6.86;75.32;99060.88;4962729;28;20817;-71
2022/04/08 00:17:36;;;;;;;3.72;2.15;;;;;;;6.84;74.96;99074.19;4965404;28;20015;-70
2022/04/08 00:20:01;;;;;;;6.10;2.08;;;;;;;6.91;74.98;99068.28;4946471;28;20569;-70
2022/04/08 00:22:27;;;;;;;7.28;2.20;;;;;;;6.85;75.14;99075.00;4948714;28;20098;-70
2022/04/08 00:24:53;;;;;;;7.53;2.38;;;;;;;6.91;74.23;99069.13;4969835;28;20447;-71
2022/04/08 00:27:18;;;;;;;6.20;2.20;;;;;;;6.80;75.55;99088.59;4965535;28;20023;-71
2022/04/08 00:29:43;;;;;;;5.30;2.30;;;;;;;6.68;76.52;99095.06;4957091;28;20850;-69
2022/04/08 00:32:09;;;;;;;3.90;1.90;;;;;;;6.66;76.05;99083.91;4966225;28;20199;-70
2022/04/08 00:34:34;;;;;;;2.38;2.05;;;;;;;6.74;75.47;99094.47;4950185;28;20737;-70
2022/04/08 00:37:00;;;;;;;5.65;1.98;;;;;;;6.65;76.46;99101.47;4950139;28;20517;-71
2022/04/08 00:39:25;;;;;;;4.00;1.80;;;;;;;6.58;75.50;99105.69;4957403;28;20019;-70
2022/04/08 00:41:50;;;;;;;3.28;1.55;;;;;;;6.51;75.55;99105.47;4934349;28;20072;-70
2022/04/08 00:44:16;;;;;;;1.88;1.23;;;;;;;6.55;75.16;99107.78;4949561;28;20108;-69
2022/04/08 00:46:43;;;;;;;1.83;1.10;;;;;;;6.53;75.42;99119.28;4952669;28;20011;-69
2022/04/08 00:49:08;;;;;;;1.67;1.30;;;;;;;6.34;74.93;99114.16;4951127;28;20205;-70
2022/04/08 00:51:34;;;;;;;1.83;1.20;;;;;;;6.29;74.62;99126.91;4949762;28;20190;-71
2022/04/08 00:53:59;;;;;;;2.75;1.20;;;;;;;6.19;74.68;99135.72;4938849;28;20130;-71
2022/04/08 00:56:25;;;;;;;2.90;1.02;;;;;;;6.16;74.48;99130.75;4941742;28;20023;-71
2022/04/08 00:58:50;;;;;;;1.80;1.10;;;;;;;6.07;74.29;99136.06;4932047;28;20084;-70
2022/04/08 01:01:15;;;;;;;1.35;0.88;;;;;;;6.13;74.32;99133.66;4957955;28;20956;-70
2022/04/08 01:03:41;;;;;;;1.75;1.00;;;;;;;6.08;73.87;99151.66;4964944;28;21116;-70
2022/04/08 01:06:06;;;;;;;1.10;1.00;;;;;;;5.95;74.53;99145.91;4948756;28;20022;-71
2022/04/08 01:08:34;;;;;;;3.80;1.30;;;;;;;5.95;74.99;99145.91;4954168;28;20092;-70
2022/04/08 01:10:59;;;;;;;3.22;1.13;;;;;;;5.95;75.22;99146.75;4948972;28;20070;-69
2022/04/08 01:13:25;;;;;;;1.83;0.98;;;;;;;5.96;74.64;99158.06;4950152;28;20311;-70
2022/04/08 01:15:50;;;;;;;4.53;0.90;;;;;;;5.96;74.53;99151.00;4949156;28;20002;-70
2022/04/08 01:18:16;;;;;;;4.22;1.20;;;;;;;5.90;75.27;99169.16;4935473;28;20012;-72
2022/04/08 01:20:41;;;;;;;3.58;1.00;;;;;;;5.88;76.00;99178.97;4959409;28;20010;-71
2022/04/08 01:23:07;;;;;;;5.85;1.20;;;;;;;5.84;74.72;99181.88;4968592;28;20355;-71
2022/04/08 01:25:32;;;;;;;2.33;1.00;;;;;;;5.88;74.94;99185.06;4968976;28;20171;-70
2022/04/08 01:27:57;;;;;;;1.67;1.05;;;;;;;5.80;75.03;99191.00;4955449;28;20010;-71
2022/04/08 01:30:23;;;;;;;7.13;1.30;;;;;;;5.77;75.69;99193.13;4957200;28;20648;-71
2022/04/08 01:32:48;;;;;;;2.90;1.20;;;;;;;5.88;75.05;99192.09;4932740;28;20038;-71
2022/04/08 01:35:14;;;;;;;4.97;1.52;;;;;;;5.91;74.45;99192.63;4954803;28;20014;-70
2022/04/08 01:37:39;;;;;;;2.30;1.35;;;;;;;5.88;74.13;99199.97;4947190;28;20143;-70
2022/04/08 01:40:05;;;;;;;6.88;1.23;;;;;;;5.84;74.60;99202.06;4963560;28;20902;-70
2022/04/08 01:42:31;;;;;;;3.80;1.50;;;;;;;5.92;74.08;99209.19;4959486;28;20424;-70
2022/04/08 01:44:56;;;;;;;6.95;1.30;;;;;;;5.89;74.16;99212.13;4944141;28;20015;-69
2022/04/08 01:47:22;;;;;;;3.17;1.30;;;;;;;5.94;74.20;99218.59;4965979;28;20204;-70
2022/04/08 01:49:47;;;;;;;6.85;1.77;;;;;;;5.98;74.78;99209.50;4949229;28;20168;-70
2022/04/08 01:52:13;;;;;;;8.45;1.90;;;;;;;5.99;74.21;99210.31;4957605;28;20049;-69
2022/04/08 01:54:39;;;;;;;5.43;1.83;;;;;;;5.92;74.13;99212.69;4958399;28;20880;-69
2022/04/08 01:57:04;;;;;;;6.05;1.65;;;;;;;5.98;73.89;99232.31;4940178;28;20263;-70
2022/04/08 01:59:29;;;;;;;6.15;1.70;;;;;;;5.99;73.67;99216.41;4947330;28;20025;-70
2022/04/08 02:01:55;;;;;;;6.47;2.15;;;;;;;6.05;73.83;99227.28;4960278;28;20547;-70
2022/04/08 02:04:20;;;;;;;5.25;1.35;;;;;;;5.97;74.29;99233.22;4949984;28;20022;-70
2022/04/08 02:06:45;;;;;;;7.97;1.75;;;;;;;5.95;75.26;99237.78;4938194;28;20038;-72
2022/04/08 02:09:14;;;;;;;5.57;1.52;;;;;;;6.10;74.95;99246.88;4964890;28;20073;-70
2022/04/08 02:11:39;;;;;;;4.28;1.60;;;;;;;6.06;74.37;99242.06;4959890;28;20023;-71
2022/04/08 02:14:04;;;;;;;6.78;1.85;;;;;;;6.06;74.33;99244.69;4952111;28;20019;-70
2022/04/08 02:16:30;;;;;;;5.72;1.80;;;;;;;6.10;74.39;99243.44;4956757;28;20021;-72
2022/04/08 02:18:56;;;;;;;3.58;1.60;;;;;;;6.03;74.44;99248.44;4965270;28;20059;-70
2022/04/08 02:21:21;;;;;;;4.20;1.40;;;;;;;6.09;74.73;99247.03;4943510;28;20811;-71
2022/04/08 02:23:47;;;;;;;4.50;1.55;;;;;;;6.18;73.50;99262.75;4936066;28;20033;-70
2022/04/08 02:26:14;;;;;;;3.33;1.52;;;;;;;6.16;73.60;99262.06;4948382;28;20403;-70
2022/04/08 02:28:39;;;;;;;4.28;1.50;;;;;;;6.17;74.72;99261.09;4962335;28;20415;-70
2022/04/08 02:31:05;;;;;;;3.35;1.50;;;;;;;6.13;73.74;99259.72;4962920;28;20045;-71
2022/04/08 02:33:31;;;;;;;4.63;1.70;;;;;;;6.22;73.98;99275.59;4964718;28;20993;-70
2022/04/08 02:35:57;;;;;;;2.45;1.20;;;;;;;6.21;74.81;99276.56;4944233;28;20011;-71
2022/04/08 02:38:22;;;;;;;4.05;1.67;;;;;;;6.23;73.83;99275.44;4934468;28;20026;-70
2022/04/08 02:40:47;;;;;;;4.43;1.67;;;;;;;6.26;74.85;99275.16;4937416;28;20386;-70
2022/04/08 02:43:13;;;;;;;7.45;2.10;;;;;;;6.28;74.54;99272.41;4973796;28;20026;-70
2022/04/08 02:45:38;;;;;;;3.88;1.65;;;;;;;6.21;73.69;99273.94;4991947;28;20593;-71
2022/04/08 02:48:04;;;;;;;5.55;2.05;;;;;;;6.25;73.96;99275.31;4970760;28;20208;-69
2022/04/08 02:50:29;;;;;;;4.95;2.03;;;;;;;6.18;74.49;99277.69;4953414;28;20077;-70
2022/04/08 02:52:54;;;;;;;4.05;2.22;;;;;;;6.22;74.59;99281.69;4962647;28;20054;-70
2022/04/08 02:55:20;;;;;;;8.50;2.50;;;;;;;6.22;74.46;99283.47;4960894;28;20019;-70
2022/04/08 02:57:46;;;;;;;6.72;2.90;;;;;;;6.34;74.24;99287.56;4953871;28;20551;-71
2022/04/08 03:00:15;;;;;;;4.65;2.58;;;;;;;6.40;74.66;99286.97;4963102;28;20133;-70
2022/04/08 03:02:40;;;;;;;4.45;2.13;;;;;;;6.41;73.89;99286.00;4953744;28;20624;-69
2022/04/08 03:05:06;;;;;;;4.55;2.40;;;;;;;6.43;74.08;99285.84;4949550;28;20015;-69
2022/04/08 03:07:35;;;;;;;6.35;2.60;;;;;;;6.33;74.67;99286.75;4958565;28;20010;-70
2022/04/08 03:10:03;;;;;;;6.50;2.80;;;;;;;6.28;74.86;99286.34;4960209;28;20045;-70
2022/04/08 03:12:29;;;;;;;4.80;2.90;;;;;;;6.32;74.13;99285.09;4946141;28;20364;-70
2022/04/08 03:14:54;;;;;;;5.72;3.20;;;;;;;6.28;74.61;99288.16;4966309;28;20103;-70
2022/04/08 03:17:19;;;;;;;4.85;3.03;;;;;;;6.24;75.20;99292.03;4963873;28;20025;-70
2022/04/08 03:19:45;;;;;;;7.00;3.00;;;;;;;6.30;75.02;99291.44;4962404;28;20018;-69
2022/04/08 03:22:10;;;;;;;6.32;2.95;;;;;;;6.25;75.85;99283.19;4968526;28;20026;-70
2022/04/08 03:24:35;;;;;;;7.65;3.20;;;;;;;6.18;75.03;99281.13;4950678;28;20014;-70
2022/04/08 03:27:01;;;;;;;7.50;3.25;;;;;;;6.19;75.56;99287.22;4962962;28;20264;-71
2022/04/08 03:29:26;;;;;;;6.75;3.50;;;;;;;6.26;75.09;99284.81;4943131;28;20027;-70
2022/04/08 03:31:51;;;;;;;9.27;3.72;;;;;;;6.25;75.29;99283.19;4963132;28;20079;-69
2022/04/08 03:34:17;;;;;;;5.93;3.17;;;;;;;6.30;75.41;99284.41;4950892;28;20015;-69
2022/04/08 03:36:43;;;;;;;6.28;3.85;;;;;;;6.20;75.34;99288.88;4934211;28;20015;-70
2022/04/08 03:39:09;;;;;;;7.78;3.70;;;;;;;6.09;76.47;99289.88;4950210;28;20243;-70
2022/04/08 03:41:35;;;;;;;7.65;3.65;;;;;;;6.17;76.15;99300.47;4945602;28;20025;-70
2022/04/08 03:44:00;;;;;;;7.10;3.38;;;;;;;6.18;75.53;99302.16;4968226;28;20186;-69
2022/04/08 03:46:26;;;;;;;6.55;3.80;;;;;;;6.03;76.35;99300.94;4963832;28;20010;-69
2022/04/08 03:48:51;;;;;;;5.97;3.22;;;;;;;6.03;76.33;99305.38;4959084;28;20073;-70
2022/04/08 03:51:17;;;;;;;7.43;3.20;;;;;;;6.06;76.70;99313.78;4961169;28;20037;-71
2022/04/08 03:53:42;;;;;;;8.48;3.65;;;;;;;6.05;75.82;99309.53;4952079;28;20087;-70
2022/04/08 03:56:07;;;;;;;4.25;2.88;;;;;;;6.05;75.67;99327.91;4933406;28;20099;-71
2022/04/08 03:58:33;;;;;;;6.63;3.08;;;;;;;6.06;75.63;99326.09;4960391;28;20019;-68
2022/04/08 04:00:58;;;;;;;6.55;3.35;;;;;;;6.00;75.84;99338.00;4953039;28;20027;-69
2022/04/08 04:03:23;;;;;;;8.88;3.13;;;;;;;6.05;75.98;99342.81;4961821;28;20028;-69
2022/04/08 04:05:49;;;;;;;7.80;3.33;;;;;;;6.02;75.59;99349.19;4955143;28;20427;-71
2022/04/08 04:08:18;;;;;;;7.50;2.95;;;;;;;6.06;74.95;99347.94;4918263;28;20006;-70
2022/04/08 04:10:44;;;;;;;9.30;2.90;;;;;;;6.06;75.45;99353.19;4964071;28;20026;-69
2022/04/08 04:13:09;;;;;;;7.07;3.08;;;;;;;5.96;75.45;99352.34;4938747;28;20344;-71
2022/04/08 04:15:35;;;;;;;5.85;2.80;;;;;;;5.96;75.96;99347.09;4930144;28;20263;-71
2022/04/08 04:18:00;;;;;;;7.10;2.47;;;;;;;5.91;75.77;99349.31;4966685;28;20269;-70
2022/04/08 04:20:25;;;;;;;6.25;2.70;;;;;;;5.88;76.47;99357.47;4959592;28;20025;-70
2022/04/08 04:22:53;;;;;;;4.00;2.60;;;;;;;5.93;76.41;99357.88;4955468;28;20026;-70
2022/04/08 04:25:18;;;;;;;5.32;2.80;;;;;;;5.92;76.02;99364.09;4954505;28;20077;-70
2022/04/08 04:27:44;;;;;;;3.00;2.50;;;;;;;5.90;76.21;99368.69;4955566;28;20007;-70
2022/04/08 04:30:10;;;;;;;4.68;2.75;;;;;;;5.89;75.18;99373.09;4961878;28;20041;-70
2022/04/08 04:32:35;;;;;;;4.90;2.85;;;;;;;5.90;75.74;99347.69;4962993;28;20046;-70
2022/04/08 04:35:06;;;;;;;5.75;2.75;;;;;;;5.89;75.34;99353.88;4950760;28;20022;-69
2022/04/08 04:37:35;;;;;;;5.63;3.47;;;;;;;5.86;75.78;99355.00;4965897;28;20026;-69
2022/04/08 04:40:01;;;;;;;6.55;3.30;;;;;;;5.94;75.13;99344.63;4950685;28;20014;-70
2022/04/08 04:42:27;;;;;;;7.35;3.05;;;;;;;5.92;75.34;99350.97;4932844;28;20054;-71
2022/04/08 04:44:53;;;;;;;3.30;2.88;;;;;;;5.96;75.23;99349.72;4949364;28;20007;-71
2022/04/08 04:47:18;;;;;;;7.05;2.90;;;;;;;5.96;74.88;99352.34;4951240;28;20010;-69
2022/04/08 04:49:44;;;;;;;6.97;2.95;;;;;;;5.97;74.66;99348.75;4937974;28;21062;-71
2022/04/08 04:52:09;;;;;;;8.38;3.33;;;;;;;5.94;74.45;99354.31;4944249;28;20076;-73
2022/04/08 04:54:34;;;;;;;4.45;3.20;;;;;;;5.92;74.63;99348.34;4945034;28;20054;-71
2022/04/08 04:57:00;;;;;;;5.55;3.55;;;;;;;5.90;75.53;99348.50;4965817;28;20019;-69
2022/04/08 04:59:25;;;;;;;5.43;3.58;;;;;;;5.87;75.42;99358.47;4957301;28;20918;-73
2022/04/08 05:01:51;;;;;;;6.10;3.35;;;;;;;5.85;75.42;99353.31;4957962;28;20007;-72
2022/04/08 05:04:16;;;;;;;6.72;3.75;;;;;;;5.83;76.06;99350.84;4937490;28;20087;-73
2022/04/08 05:06:41;;;;;;;6.22;4.18;;;;;;;5.89;75.89;99340.75;4941388;28;20041;-72
2022/04/08 05:09:07;;;;;;;6.47;4.00;;;;;;;5.89;76.26;99357.34;4953775;28;20022;-71
2022/04/08 05:11:32;;;;;;;6.32;4.80;;;;;;;5.89;76.19;99346.81;4966754;28;20724;-70
2022/04/08 05:13:59;;;;;;;9.70;5.05;;;;;;;5.93;75.87;99347.38;4952867;28;20638;-73
2022/04/08 05:16:24;;;;;;;10.02;5.30;;;;;;;5.77;77.05;99351.41;4946469;28;20046;-71
2022/04/08 05:18:50;;;;;;;8.15;5.50;;;;;;;5.83;76.99;99360.53;4967380;28;20029;-71
2022/04/08 05:21:15;;;;;;;8.68;5.85;;;;;;;5.80;76.92;99360.81;4952186;28;20029;-68
2022/04/08 05:23:40;;;;;;;7.30;5.80;;;;;;;5.82;77.43;99367.59;4952673;28;20964;-69
2022/04/08 05:26:06;;;;;;;9.45;5.55;;;;;;;5.92;76.90;99364.09;4954077;28;20350;-74
2022/04/08 05:28:31;;;;;;;7.10;5.60;;;;;;;5.92;76.60;99361.47;4938077;28;19999;-72
2022/04/08 05:30:56;;;;;;;9.35;5.68;;;;;;;5.95;76.25;99361.19;4944221;28;20088;-71
2022/04/08 05:33:22;;;;;;;9.13;6.07;;;;;;;5.90;76.37;99368.69;4951346;28;20038;-71
2022/04/08 05:35:47;;;;;;;8.73;6.25;;;;;;;5.86;76.43;99362.88;4940227;28;20022;-70
2022/04/08 05:38:13;;;;;;;7.32;6.00;;;;;;;5.76;77.09;99367.31;4974981;28;20343;-71
2022/04/08 05:40:38;;;;;;;7.68;6.32;;;;;;;5.87;76.55;99361.91;4957048;28;20049;-71
2022/04/08 05:43:03;;;;;;;9.25;6.20;;;;;;;5.91;76.35;99344.91;4955956;28;20022;-70
2022/04/08 05:45:29;;;;;;;8.55;6.45;;;;;;;5.92;76.13;99358.84;4961103;28;20109;-72
2022/04/08 05:47:54;;;;;;;8.65;6.32;;;;;;;6.00;76.17;99354.56;4957162;28;20006;-71
2022/04/08 05:50:20;;;;;;;9.02;6.10;;;;;;;5.93;76.54;99357.88;4947947;28;20137;-69
2022/04/08 05:52:47;;;;;;;9.45;6.63;;;;;;;5.97;76.28;99360.13;4951090;28;20175;-71
2022/04/08 05:55:13;;;;;;;8.02;6.20;;;;;;;6.03;76.12;99360.53;4948843;28;20109;-72
2022/04/08 05:57:41;;;;;;;8.18;5.97;;;;;;;6.03;76.10;99361.34;4994842;28;20018;-74
2022/04/08 06:00:10;;;;;;;8.57;6.38;;;;;;;6.09;76.06;99352.91;4960294;28;20232;-74
2022/04/08 06:02:35;;;;;;;10.38;6.53;;;;;;;6.13;76.35;99356.88;4965333;28;20412;-68
2022/04/08 06:05:00;;;;;;;8.48;6.32;;;;;;;6.11;75.83;99361.47;4975251;28;20021;-70
2022/04/08 06:07:26;;;;;;;7.80;6.35;;;;;;;6.15;75.85;99356.78;4958968;28;20957;-72
2022/04/08 06:09:52;;;;;;;7.72;5.93;;;;;;;6.24;74.98;99349.84;4951687;28;20483;-72
2022/04/08 06:12:17;;;;;;;8.02;5.97;;;;;;;6.36;75.11;99349.50;4948490;28;20126;-72
2022/04/08 06:14:42;;;;;;;11.43;6.10;;;;;;;6.23;75.26;99346.34;4959060;28;20021;-70
2022/04/08 06:17:08;;;;;;;9.23;5.65;;;;;;;6.29;75.05;99348.44;4960215;28;20018;-70
2022/04/08 06:19:33;;;;;;;6.88;6.05;;;;;;;6.39;74.17;99345.78;4950231;28;20873;-73
2022/04/08 06:21:59;;;;;;;7.03;5.55;;;;;;;6.36;74.55;99343.44;4956253;28;20271;-72
2022/04/08 06:24:24;;;;;;;8.63;5.90;;;;;;;6.46;74.00;99352.09;4953721;28;20022;-72
2022/04/08 06:26:50;;;;;;;10.07;5.70;;;;;;;6.39;73.45;99345.78;4956367;28;20018;-71
2022/04/08 06:29:15;;;;;;;7.22;5.47;;;;;;;6.53;73.83;99342.66;4954726;28;20483;-69
2022/04/08 06:31:40;;;;;;;5.78;5.20;;;;;;;6.49;74.16;99333.41;4960693;28;20752;-70
2022/04/08 06:34:06;;;;;;;8.85;5.30;;;;;;;6.59;73.45;99332.53;4974342;28;20094;-72
2022/04/08 06:36:31;;;;;;;6.03;5.43;;;;;;;6.67;73.23;99337.88;4963409;28;20010;-71
2022/04/08 06:38:57;;;;;;;7.32;5.53;;;;;;;6.79;72.27;99344.59;4918474;28;20284;-71
2022/04/08 06:41:22;;;;;;;7.47;5.43;;;;;;;6.82;72.06;99338.22;4952708;28;20068;-72
2022/04/08 06:43:47;;;;;;;8.45;5.30;;;;;;;6.83;70.98;99340.69;4954635;28;20029;-69
2022/04/08 06:46:13;;;;;;;7.82;5.07;;;;;;;6.77;71.41;99341.31;4942139;28;19999;-72
2022/04/08 06:48:38;;;;;;;6.78;5.35;;;;;;;6.83;71.43;99343.34;4952997;28;20023;-72
2022/04/08 06:51:06;;;;;;;6.68;4.90;;;;;;;6.97;70.46;99347.25;4959416;28;20022;-71
2022/04/08 06:53:35;;;;;;;6.38;4.85;;;;;;;7.01;70.19;99351.25;4960498;28;20049;-68
2022/04/08 06:56:04;;;;;;;5.28;4.78;;;;;;;6.98;70.17;99340.19;4954314;28;20011;-71
2022/04/08 06:58:30;;;;;;;7.65;4.75;;;;;;;7.00;69.85;99348.78;4954290;28;20319;-71
2022/04/08 07:00:56;;;;;;;6.47;4.50;;;;;;;7.13;69.31;99343.97;4938764;28;20110;-74
2022/04/08 07:03:22;;;;;;;6.00;4.53;;;;;;;7.25;69.24;99338.47;4946083;28;20031;-72
2022/04/08 07:05:47;;;;;;;4.97;4.40;;;;;;;7.31;69.74;99341.34;4957247;28;20882;-68
2022/04/08 07:08:12;;;;;;;5.10;4.45;;;;;;;7.36;70.58;99336.47;4957296;28;20298;-74
2022/04/08 07:10:40;;;;;;;6.38;4.40;;;;;;;7.49;68.72;99327.38;4958587;28;20034;-74
2022/04/08 07:13:06;;;;;;;4.55;4.13;;;;;;;7.27;69.39;99320.75;4929890;28;20026;-70
2022/04/08 07:15:31;;;;;;;5.43;4.38;;;;;;;7.38;68.57;99312.63;4973789;28;20223;-72
2022/04/08 07:17:57;;;;;;;10.50;4.78;;;;;;;7.53;67.47;99315.53;4973776;28;20603;-73
2022/04/08 07:20:22;;;;;;;4.75;4.07;;;;;;;7.60;67.26;99311.34;4966492;28;20026;-72
2022/04/08 07:22:48;;;;;;;5.97;4.45;;;;;;;7.64;66.90;99310.06;4956409;28;20096;-72
2022/04/08 07:25:13;;;;;;;5.82;3.88;;;;;;;7.62;67.26;99321.72;4962958;28;20061;-71
2022/04/08 07:27:49;;;;;;;5.65;3.65;;;;;;;7.57;67.22;99323.00;4955691;28;20799;-69
2022/04/08 07:30:17;;;;;;;5.32;3.30;;;;;;;7.63;67.43;99316.28;4939357;28;20030;-71
2022/04/08 07:32:42;;;;;;;5.35;3.80;;;;;;;7.47;66.99;99322.22;4951133;28;20122;-71
2022/04/08 07:35:08;;;;;;;4.28;3.88;;;;;;;7.51;68.17;99320.13;4967590;28;20011;-72
2022/04/08 07:37:33;;;;;;;6.18;3.83;;;;;;;7.54;68.23;99312.78;4942463;28;20023;-72
2022/04/08 07:39:59;;;;;;;7.65;4.10;;;;;;;7.56;67.65;99308.19;4952815;28;20103;-72
2022/04/08 07:42:24;;;;;;;5.18;3.92;;;;;;;7.49;66.05;99309.75;4954780;28;20019;-68
2022/04/08 07:44:50;;;;;;;6.85;4.00;;;;;;;7.50;66.95;99326.38;4951604;28;20244;-69
2022/04/08 07:47:16;;;;;;;6.45;4.00;;;;;;;7.54;66.98;99322.47;4949945;28;20256;-72
2022/04/08 07:49:42;;;;;;;4.68;3.63;;;;;;;7.44;65.99;99327.81;4959420;28;20057;-72
2022/04/08 07:52:07;;;;;;;4.40;3.40;;;;;;;7.51;66.30;99323.59;4963922;28;20026;-72
2022/04/08 07:54:33;;;;;;;4.28;3.72;;;;;;;7.38;67.56;99302.94;4964439;28;20270;-71
2022/04/08 07:56:59;;;;;;;5.53;3.72;;;;;;;7.34;67.75;99306.84;4946469;28;21093;-72
2022/04/08 07:59:24;;;;;;;4.15;3.28;;;;;;;7.29;65.98;99308.28;4937453;28;20419;-73
2022/04/08 08:01:50;;;;;;;4.15;2.90;;;;;;;7.37;65.25;99318.88;4946795;28;20056;-71
2022/04/08 08:04:16;;;;;;;6.95;3.20;;;;;;;7.41;65.88;99314.97;4947099;28;20027;-69
2022/04/08 08:06:41;;;;;;;3.05;2.80;;;;;;;7.52;65.06;99309.47;4968673;28;20033;-69
2022/04/08 08:09:06;;;;;;;4.80;2.60;;;;;;;7.57;65.54;99317.72;4932461;28;20018;-72
2022/04/08 08:11:32;;;;;;;3.95;2.95;;;;;;;7.59;64.85;99314.94;4949376;28;20133;-73
2022/04/08 08:13:58;;;;;;;4.43;3.35;;;;;;;7.57;65.13;99301.94;4945697;28;20377;-73
2022/04/08 08:16:23;;;;;;;5.50;3.10;;;;;;;7.61;64.11;99307.72;4972654;28;20013;-72
2022/04/08 08:18:49;;;;;;;3.60;2.85;;;;;;;7.65;64.24;99308.25;4972534;28;20074;-70
2022/04/08 08:21:15;;;;;;;8.88;2.88;;;;;;;7.74;64.52;99302.88;4960135;28;20399;-71
2022/04/08 08:23:40;;;;;;;2.85;2.65;;;;;;;7.95;64.17;99299.03;4954715;28;20892;-71
2022/04/08 08:26:06;;;;;;;5.32;2.90;;;;;;;8.06;63.90;99298.78;4954775;28;20010;-71
2022/04/08 08:28:31;;;;;;;3.53;2.55;;;;;;;7.88;62.54;99298.88;4955479;28;20092;-72
2022/04/08 08:30:56;;;;;;;3.33;2.53;;;;;;;7.94;62.21;99299.19;4963302;28;20038;-70
2022/04/08 08:33:22;;;;;;;3.63;2.58;;;;;;;7.95;62.65;99298.22;4970398;28;20014;-72
2022/04/08 08:35:47;;;;;;;4.57;2.70;;;;;;;7.97;62.40;99306.81;4971565;28;20654;-72
2022/04/08 08:38:12;;;;;;;3.08;2.53;;;;;;;8.08;62.63;99294.19;4943253;28;20037;-72
2022/04/08 08:40:38;;;;;;;4.22;2.65;;;;;;;8.11;62.86;99290.44;4972131;28;20022;-72
2022/04/08 08:43:03;;;;;;;4.57;2.80;;;;;;;8.25;61.00;99294.28;4941290;28;20029;-71
2022/04/08 08:45:29;;;;;;;4.00;2.70;;;;;;;8.34;60.51;99287.22;4961772;28;20210;-70
2022/04/08 08:47:55;;;;;;;2.70;2.50;;;;;;;8.43;61.33;99296.81;4955048;28;20407;-72
2022/04/08 08:50:21;;;;;;;4.45;2.70;;;;;;;8.53;59.39;99292.28;4936322;28;20069;-71
2022/04/08 08:52:50;;;;;;;2.53;2.33;;;;;;;8.32;59.09;99284.75;4929958;28;20025;-69
2022/04/08 08:55:16;;;;;;;2.47;2.28;;;;;;;8.40;59.03;99281.31;4944952;28;20014;-73
2022/04/08 08:57:42;;;;;;;2.75;2.30;;;;;;;8.51;59.48;99288.97;4949261;28;20376;-71
2022/04/08 09:00:15;;;;;;;2.70;2.50;;;;;;;8.62;60.84;99284.41;4951940;28;20552;-70
2022/04/08 09:02:42;;;;;;;3.03;2.40;;;;;;;8.61;57.45;99277.47;4954489;28;20725;-72
2022/04/08 09:05:15;;;;;;;3.35;2.50;;;;;;;8.54;57.65;99267.56;4971253;28;20027;-71
2022/04/08 09:07:40;;;;;;;3.05;2.30;;;;;;;8.46;57.83;99264.06;4970859;28;20015;-71
2022/04/08 09:10:06;;;;;;;2.55;2.33;;;;;;;8.59;57.71;99248.63;4971312;28;20737;-72
2022/04/08 09:12:31;;;;;;;4.10;2.90;;;;;;;8.50;59.43;99250.44;4948452;28;20262;-73
2022/04/08 09:14:57;;;;;;;2.90;2.63;;;;;;;8.36;58.55;99237.81;4968640;28;20105;-71
2022/04/08 09:17:24;;;;;;;4.53;3.00;;;;;;;8.53;59.62;99239.56;4938055;28;20046;-70
2022/04/08 09:19:50;;;;;;;3.13;2.90;;;;;;;8.54;58.99;99235.91;4944950;28;20207;-73
2022/04/08 09:22:16;;;;;;;4.00;3.05;;;;;;;8.59;59.02;99228.34;4933913;28;20014;-72
2022/04/08 09:24:41;;;;;;;4.50;3.38;;;;;;;8.92;60.22;99223.13;4941784;28;20034;-72
2022/04/08 09:27:07;;;;;;;4.55;2.55;;;;;;;9.11;58.52;99221.19;4936054;28;20030;-69
2022/04/08 09:29:32;;;;;;;3.42;2.40;;;;;;;9.13;57.68;99219.19;4964478;28;20862;-70
2022/04/08 09:31:57;;;;;;;4.97;2.70;;;;;;;9.09;56.56;99215.22;4951791;28;20034;-71
2022/04/08 09:34:23;;;;;;;2.78;2.58;;;;;;;9.16;55.71;99203.00;4953503;28;20018;-73
2022/04/08 09:36:49;;;;;;;2.97;2.75;;;;;;;9.08;55.87;99195.94;4952241;28;20374;-72
2022/04/08 09:39:14;;;;;;;6.25;2.72;;;;;;;9.03;56.25;99202.69;4944450;28;20093;-72
2022/04/08 09:41:41;;;;;;;4.13;3.08;;;;;;;9.03;56.24;99202.69;4958172;28;20335;-70
2022/04/08 09:44:07;;;;;;;2.80;2.60;;;;;;;9.09;57.01;99187.03;4951333;28;20496;-73
2022/04/08 09:46:32;;;;;;;2.70;2.50;;;;;;;9.27;57.05;99186.03;4951976;28;20916;-72
2022/04/08 09:48:58;;;;;;;2.63;2.42;;;;;;;9.32;55.69;99174.97;4953592;28;20011;-72
2022/04/08 09:51:23;;;;;;;4.30;2.15;;;;;;;9.22;54.62;99185.69;4947162;28;20583;-70
2022/04/08 09:53:56;;;;;;;3.35;2.40;;;;;;;9.13;55.49;99179.59;4950294;28;20015;-70
2022/04/08 09:56:23;;;;;;;7.18;3.13;;;;;;;9.07;55.56;99173.16;4953156;28;20406;-73
2022/04/08 09:58:53;;;;;;;2.83;2.60;;;;;;;9.30;56.61;99166.41;4960258;28;20027;-73
2022/04/08 10:01:18;;;;;;;3.78;2.30;;;;;;;9.32;55.64;99169.69;4941344;28;20096;-73
2022/04/08 10:03:44;;;;;;;3.42;2.00;;;;;;;9.39;55.82;99173.28;4973806;28;20030;-73
2022/04/08 10:06:09;;;;;;;2.92;2.30;;;;;;;9.30;54.33;99166.41;4950886;28;20030;-70
2022/04/08 10:08:34;;;;;;;3.40;2.05;;;;;;;9.26;53.66;99174.66;4948444;28;20979;-69
2022/04/08 10:11:06;;;;;;;2.00;1.90;;;;;;;9.27;54.18;99172.81;4946076;28;20454;-71
2022/04/08 10:13:51;;;;;;;2.72;2.15;;;;;;;9.32;54.44;99175.81;4932496;28;20797;-72
2022/04/08 10:16:17;;;;;;;2.45;2.25;;;;;;;9.40;53.25;99180.22;4947032;28;20597;-72
2022/04/08 10:18:43;;;;;;;2.10;1.92;;;;;;;9.18;52.46;99181.72;4960671;28;20010;-72
2022/04/08 10:21:10;;;;;;;3.55;2.20;;;;;;;9.16;54.68;99189.00;4960299;28;20023;-70
2022/04/08 10:23:40;;;;;;;2.35;2.15;;;;;;;9.14;53.19;99183.91;4969161;28;20011;-72
2022/04/08 10:26:17;;;;;;;3.00;2.13;;;;;;;9.10;53.81;99187.84;4932582;28;20891;-69
2022/04/08 10:28:42;;;;;;;3.33;2.15;;;;;;;8.93;55.15;99198.41;4946861;28;20130;-70
2022/04/08 10:31:26;;;;;;;2.63;2.10;;;;;;;9.16;56.54;99192.47;4958069;28;21069;-71
2022/04/08 10:34:00;;;;;;;3.60;2.08;;;;;;;9.14;54.21;99194.44;4956868;28;20413;-70
2022/04/08 10:36:40;;;;;;;2.75;2.10;;;;;;;9.14;53.29;99185.69;4959634;28;20166;-73
2022/04/08 10:39:16;;;;;;;2.60;1.88;;;;;;;9.21;52.83;99182.25;4964879;28;20031;-72
2022/04/08 10:41:51;;;;;;;2.05;1.85;;;;;;;9.22;52.78;99186.53;4966139;28;20087;-73
2022/04/08 10:44:31;;;;;;;2.90;1.90;;;;;;;9.03;52.15;99177.13;4967903;28;20030;-70
2022/04/08 10:46:57;;;;;;;2.67;1.88;;;;;;;8.92;51.69;99185.38;4958822;28;20471;-72
2022/04/08 10:49:23;;;;;;;1.80;1.70;;;;;;;8.99;51.14;99169.72;4939188;28;20902;-73
2022/04/08 10:51:49;;;;;;;6.80;2.20;;;;;;;8.75;52.29;99168.72;4948261;28;20045;-72
2022/04/08 10:54:15;;;;;;;2.70;1.92;;;;;;;8.81;53.14;99168.06;4951881;28;20668;-71
2022/04/08 10:56:40;;;;;;;2.33;2.08;;;;;;;8.84;54.71;99162.47;4947032;28;20275;-72
2022/04/08 10:59:06;;;;;;;3.50;2.50;;;;;;;8.72;54.24;99148.75;4947607;28;20014;-72
2022/04/08 11:01:34;;;;;;;3.63;2.28;;;;;;;8.80;56.10;99139.22;4947518;28;19995;-71
2022/04/08 11:04:01;;;;;;;4.05;2.20;;;;;;;8.79;55.83;99134.94;4950331;28;20426;-71
2022/04/08 11:06:27;;;;;;;3.60;2.10;;;;;;;8.87;55.93;99124.38;4948794;28;20017;-71
2022/04/08 11:08:53;;;;;;;2.42;2.10;;;;;;;8.84;56.33;99122.06;4979820;28;20194;-69
2022/04/08 11:11:28;;;;;;;2.20;2.10;;;;;;;8.86;57.16;99115.63;4959117;28;20507;-72
2022/04/08 11:13:55;;;;;;;2.58;2.38;;;;;;;8.99;55.28;99109.03;4927230;28;20026;-71
2022/04/08 11:16:21;;;;;;;3.70;2.20;;;;;;;8.92;55.64;99095.69;4963577;28;20810;-73
2022/04/08 11:18:47;;;;;;;3.58;2.40;;;;;;;8.85;55.23;99095.50;4962833;28;20029;-72
2022/04/08 11:21:21;;;;;;;3.28;2.35;;;;;;;8.90;54.32;99084.50;4929713;28;20797;-72
2022/04/08 11:24:00;;;;;;;2.75;2.30;;;;;;;8.87;54.88;99080.38;4956127;28;20084;-69
2022/04/08 11:26:27;;;;;;;3.83;2.47;;;;;;;8.88;55.20;99074.09;4949235;28;20006;-71
2022/04/08 11:28:53;;;;;;;8.07;2.72;;;;;;;8.96;54.79;99073.25;4950117;28;20118;-72
2022/04/08 11:31:19;;;;;;;4.28;2.80;;;;;;;9.05;54.45;99072.25;4944069;28;20037;-69
2022/04/08 11:33:44;;;;;;;5.18;2.60;;;;;;;9.16;54.73;99070.25;4950123;28;20006;-70
2022/04/08 11:36:09;;;;;;;3.17;2.65;;;;;;;9.30;55.26;99071.38;4961893;28;20662;-72